createdAt,value
2022-09-18T00:00:22.664Z,2.50
2022-09-18T00:02:51.143Z,2.15
2022-09-18T00:05:20.981Z,2.05
2022-09-18T00:07:49.330Z,2.17
2022-09-18T00:10:17.648Z,2.65
2022-09-18T00:12:45.977Z,2.40
2022-09-18T00:15:14.441Z,3.20
2022-09-18T00:17:42.811Z,3.33
2022-09-18T00:20:11.855Z,3.30
2022-09-18T00:22:41.707Z,3.88
2022-09-18T00:25:10.951Z,3.45
2022-09-18T00:27:39.264Z,2.75
2022-09-18T00:30:08.125Z,2.55
2022-09-18T00:32:36.477Z,2.70
2022-09-18T00:35:05.020Z,2.47
2022-09-18T00:37:33.866Z,2.35
2022-09-18T00:40:04.437Z,2.90
2022-09-18T00:42:32.856Z,2.67
2022-09-18T00:45:01.204Z,2.13
2022-09-18T00:47:31.657Z,2.70
2022-09-18T00:50:04.127Z,2.58
2022-09-18T00:52:34.753Z,2.33
2022-09-18T00:55:06.652Z,2.10
2022-09-18T00:57:38.014Z,2.30
2022-09-18T01:00:10.797Z,2.38
2022-09-18T01:02:39.236Z,2.25
2022-09-18T01:05:08.534Z,3.03
2022-09-18T01:07:43.525Z,2.13
2022-09-18T01:10:19.228Z,2.80
2022-09-18T01:12:54.050Z,2.42
2022-09-18T01:15:26.069Z,2.67
2022-09-18T01:17:58.718Z,2.58
2022-09-18T01:20:42.075Z,2.13
2022-09-18T01:23:16.876Z,2.40
2022-09-18T01:25:53.938Z,2.45
2022-09-18T01:28:26.864Z,2.88
2022-09-18T01:30:57.929Z,2.42
2022-09-18T01:33:30.580Z,2.50
2022-09-18T01:36:00.905Z,2.63
2022-09-18T01:38:31.451Z,2.20
2022-09-18T01:41:02.967Z,2.45
2022-09-18T01:43:33.564Z,2.30
2022-09-18T01:46:05.051Z,2.50
2022-09-18T01:48:34.282Z,2.25
2022-09-18T01:51:06.053Z,2.28
2022-09-18T01:53:36.710Z,2.35
2022-09-18T01:56:08.867Z,1.75
2022-09-18T01:58:38.854Z,2.00
2022-09-18T02:01:10.340Z,2.28
2022-09-18T02:03:40.939Z,2.55
2022-09-18T02:06:10.787Z,2.00
2022-09-18T02:08:41.699Z,1.92
2022-09-18T02:11:11.392Z,2.00
2022-09-18T02:13:43.522Z,1.85
2022-09-18T02:16:13.890Z,2.10
2022-09-18T02:18:43.177Z,2.05
2022-09-18T02:21:13.054Z,2.20
2022-09-18T02:23:43.255Z,2.17
2022-09-18T02:26:13.625Z,2.28
2022-09-18T02:28:44.037Z,2.40
2022-09-18T02:31:13.056Z,2.00
2022-09-18T02:33:41.762Z,2.15
2022-09-18T02:36:28.746Z,2.45
2022-09-18T02:39:02.555Z,2.67
2022-09-18T02:41:45.099Z,2.20
2022-09-18T02:44:18.594Z,2.30
2022-09-18T02:46:52.820Z,2.60
2022-09-18T02:49:27.022Z,2.42
2022-09-18T02:51:58.436Z,2.22
2022-09-18T02:54:29.023Z,2.80
2022-09-18T02:56:58.613Z,3.15
2022-09-18T02:59:31.565Z,2.70
2022-09-18T03:02:00.249Z,3.38
2022-09-18T03:04:29.529Z,2.60
2022-09-18T03:06:58.000Z,3.05
2022-09-18T03:09:26.651Z,2.97
2022-09-18T03:11:55.896Z,3.10
2022-09-18T03:14:24.456Z,2.72
2022-09-18T03:16:54.198Z,3.20
2022-09-18T03:19:22.598Z,2.97
2022-09-18T03:21:52.898Z,3.35
2022-09-18T03:24:21.700Z,3.00
2022-09-18T03:26:50.044Z,3.10
2022-09-18T03:29:18.542Z,3.60
2022-09-18T03:31:47.050Z,2.95
2022-09-18T03:34:16.837Z,3.33
2022-09-18T03:36:45.236Z,3.55
2022-09-18T03:39:16.064Z,3.13
2022-09-18T03:41:47.041Z,3.38
2022-09-18T03:44:15.408Z,2.92
2022-09-18T03:46:44.718Z,3.05
2022-09-18T03:49:13.110Z,3.22
2022-09-18T03:51:42.799Z,2.70
2022-09-18T03:54:11.135Z,2.50
2022-09-18T03:56:39.500Z,3.10
2022-09-18T03:59:07.924Z,2.40
2022-09-18T04:01:36.288Z,2.33
2022-09-18T04:04:04.673Z,2.67
2022-09-18T04:06:32.971Z,2.70
2022-09-18T04:09:02.828Z,2.78
2022-09-18T04:11:31.205Z,2.63
2022-09-18T04:13:59.584Z,2.22
2022-09-18T04:16:27.967Z,2.45
2022-09-18T04:18:56.516Z,2.63
2022-09-18T04:21:24.930Z,2.70
2022-09-18T04:23:53.505Z,2.42
2022-09-18T04:26:26.302Z,2.38
2022-09-18T04:28:57.261Z,2.35
2022-09-18T04:31:25.773Z,2.55
2022-09-18T04:33:54.146Z,2.58
2022-09-18T04:36:22.624Z,2.42
2022-09-18T04:38:50.974Z,2.13
2022-09-18T04:41:19.506Z,2.38
2022-09-18T04:43:49.331Z,2.05
2022-09-18T04:46:17.772Z,2.17
2022-09-18T04:48:48.585Z,2.10
2022-09-18T04:51:18.038Z,2.17
2022-09-18T04:53:46.390Z,2.10
2022-09-18T04:56:14.749Z,2.40
2022-09-18T04:58:43.385Z,2.92
2022-09-18T05:01:13.276Z,2.90
2022-09-18T05:03:41.748Z,3.25
2022-09-18T05:06:10.362Z,3.58
2022-09-18T05:08:39.288Z,4.30
2022-09-18T05:11:07.670Z,4.55
2022-09-18T05:13:39.510Z,5.13
2022-09-18T05:16:08.105Z,5.45
2022-09-18T05:18:37.816Z,5.57
2022-09-18T05:21:06.928Z,5.45
2022-09-18T05:23:35.817Z,5.28
2022-09-18T05:26:04.390Z,5.43
2022-09-18T05:28:32.725Z,6.18
2022-09-18T05:31:01.443Z,5.38
2022-09-18T05:33:29.915Z,5.53
2022-09-18T05:35:59.969Z,5.38
2022-09-18T05:38:28.477Z,5.38
2022-09-18T05:41:01.568Z,5.82
2022-09-18T05:43:30.265Z,5.55
2022-09-18T05:45:58.937Z,5.13
2022-09-18T05:48:27.336Z,5.03
2022-09-18T05:50:55.684Z,4.90
2022-09-18T05:53:25.363Z,4.88
2022-09-18T05:55:53.710Z,4.43
2022-09-18T05:58:22.326Z,4.35
2022-09-18T06:00:52.105Z,4.00
2022-09-18T06:03:20.500Z,4.40
2022-09-18T06:05:53.421Z,4.03
2022-09-18T06:08:22.670Z,4.32
2022-09-18T06:10:53.495Z,4.07
2022-09-18T06:13:21.863Z,3.78
2022-09-18T06:15:52.276Z,3.45
2022-09-18T06:18:20.854Z,3.38
2022-09-18T06:20:53.693Z,3.15
2022-09-18T06:23:22.551Z,3.15
2022-09-18T06:25:58.001Z,3.00
2022-09-18T06:28:26.374Z,3.65
2022-09-18T06:30:54.728Z,3.20
2022-09-18T06:33:23.131Z,4.10
2022-09-18T06:35:51.881Z,3.83
2022-09-18T06:38:20.265Z,3.75
2022-09-18T06:40:53.429Z,3.40
2022-09-18T06:43:22.022Z,3.17
2022-09-18T06:45:53.928Z,3.30
2022-09-18T06:48:22.633Z,3.33
2022-09-18T06:50:54.824Z,2.80
2022-09-18T06:53:23.291Z,2.97
2022-09-18T06:55:53.026Z,2.50
2022-09-18T06:58:21.601Z,2.45
2022-09-18T07:00:50.416Z,2.58
2022-09-18T07:03:18.935Z,2.38
2022-09-18T07:05:47.365Z,2.17
2022-09-18T07:08:15.796Z,2.05
2022-09-18T07:10:44.566Z,2.00
2022-09-18T07:13:14.229Z,2.08
2022-09-18T07:15:42.718Z,1.70
2022-09-18T07:18:11.765Z,1.90
2022-09-18T07:20:40.328Z,2.20
2022-09-18T07:23:08.718Z,2.08
2022-09-18T07:25:37.181Z,2.20
2022-09-18T07:28:07.857Z,2.17
2022-09-18T07:30:37.982Z,2.20
2022-09-18T07:33:07.302Z,2.50
2022-09-18T07:35:35.897Z,2.63
2022-09-18T07:38:05.913Z,2.40
2022-09-18T07:40:34.396Z,2.35
2022-09-18T07:43:03.108Z,2.33
2022-09-18T07:45:31.638Z,2.50
2022-09-18T07:48:02.945Z,2.25
2022-09-18T07:50:31.340Z,2.20
2022-09-18T07:53:02.152Z,2.38
2022-09-18T07:55:30.629Z,2.50
2022-09-18T07:57:59.785Z,2.30
2022-09-18T08:00:29.418Z,2.55
2022-09-18T08:03:04.318Z,2.50
2022-09-18T08:05:32.813Z,2.58
2022-09-18T08:08:04.382Z,2.03
2022-09-18T08:10:35.275Z,3.08
2022-09-18T08:13:03.829Z,2.70
2022-09-18T08:15:32.369Z,2.20
2022-09-18T08:18:00.971Z,2.50
2022-09-18T08:20:30.797Z,2.03
2022-09-18T08:22:59.440Z,2.28
2022-09-18T08:25:28.520Z,2.60
2022-09-18T08:27:56.845Z,1.92
2022-09-18T08:30:25.187Z,2.03
2022-09-18T08:32:53.796Z,2.65
2022-09-18T08:35:22.203Z,2.72
2022-09-18T08:37:51.989Z,2.80
2022-09-18T08:40:22.976Z,2.17
2022-09-18T08:43:01.656Z,2.25
2022-09-18T08:45:39.779Z,2.10
2022-09-18T08:48:10.097Z,2.03
2022-09-18T08:50:40.965Z,2.00
2022-09-18T08:53:15.517Z,2.17
2022-09-18T08:55:45.571Z,2.25
2022-09-18T08:58:15.605Z,2.00
2022-09-18T09:00:46.067Z,2.00
2022-09-18T09:03:20.164Z,2.00
2022-09-18T09:05:51.053Z,1.92
2022-09-18T09:08:35.532Z,2.10
2022-09-18T09:11:08.101Z,2.13
2022-09-18T09:13:58.678Z,2.30
2022-09-18T09:16:32.014Z,2.35
2022-09-18T09:19:01.206Z,2.00
2022-09-18T09:21:51.805Z,2.00
2022-09-18T09:24:28.071Z,2.03
2022-09-18T09:26:57.601Z,2.35
2022-09-18T09:29:29.839Z,1.80
2022-09-18T09:32:00.203Z,2.03
2022-09-18T09:34:32.092Z,2.40
2022-09-18T09:37:02.644Z,2.00
2022-09-18T09:39:36.215Z,2.00
2022-09-18T09:42:07.803Z,2.65
2022-09-18T09:44:38.919Z,2.50
2022-09-18T09:47:17.533Z,2.55
2022-09-18T09:49:49.709Z,3.15
2022-09-18T09:52:22.643Z,2.90
2022-09-18T09:54:55.484Z,3.65
2022-09-18T09:57:27.628Z,2.90
2022-09-18T10:00:02.027Z,3.17
2022-09-18T10:02:36.586Z,3.28
2022-09-18T10:05:07.893Z,3.75
2022-09-18T10:07:39.062Z,3.10
2022-09-18T10:10:16.457Z,3.10
2022-09-18T10:12:50.510Z,2.92
2022-09-18T10:15:21.261Z,3.00
2022-09-18T10:17:50.324Z,2.35
2022-09-18T10:20:19.358Z,3.35
2022-09-18T10:22:48.195Z,2.97
2022-09-18T10:25:21.084Z,2.63
2022-09-18T10:27:49.761Z,2.72
2022-09-18T10:30:18.434Z,2.75
2022-09-18T10:32:46.775Z,3.00
2022-09-18T10:35:35.637Z,2.80
2022-09-18T10:38:04.429Z,2.85
2022-09-18T10:40:37.230Z,2.90
2022-09-18T10:43:06.572Z,2.60
2022-09-18T10:45:38.026Z,2.70
2022-09-18T10:48:07.688Z,3.45
2022-09-18T10:50:37.356Z,3.10
2022-09-18T10:53:17.883Z,3.00
2022-09-18T10:55:55.170Z,3.03
2022-09-18T10:58:27.977Z,2.72
2022-09-18T11:00:57.760Z,3.03
2022-09-18T11:03:33.263Z,2.90
2022-09-18T11:06:03.684Z,2.60
2022-09-18T11:08:33.879Z,2.42
2022-09-18T11:11:05.224Z,2.63
2022-09-18T11:13:34.087Z,2.97
2022-09-18T11:16:05.443Z,2.35
2022-09-18T11:18:34.344Z,2.00
2022-09-18T11:21:04.274Z,1.95
2022-09-18T11:23:33.772Z,1.77
2022-09-18T11:26:13.882Z,1.77
2022-09-18T11:28:43.050Z,1.83
2022-09-18T11:31:13.543Z,1.90
2022-09-18T11:33:44.192Z,1.90
2022-09-18T11:36:14.585Z,1.65
2022-09-18T11:38:43.527Z,2.60
2022-09-18T11:41:14.075Z,1.50
2022-09-18T11:43:44.859Z,1.95
2022-09-18T11:46:18.871Z,1.80
2022-09-18T11:48:50.485Z,2.22
2022-09-18T11:51:26.682Z,3.88
2022-09-18T11:53:57.754Z,3.80
2022-09-18T11:56:32.170Z,3.45
2022-09-18T11:59:03.247Z,3.20
2022-09-18T12:01:35.387Z,2.90
2022-09-18T12:04:07.127Z,3.15
2022-09-18T12:06:41.429Z,3.25
2022-09-18T12:09:13.003Z,4.07
2022-09-18T12:11:45.668Z,5.55
2022-09-18T12:14:16.457Z,3.97
2022-09-18T12:16:48.682Z,3.08
2022-09-18T12:19:19.819Z,3.80
2022-09-18T12:21:51.974Z,2.70
2022-09-18T12:24:20.349Z,1.90
2022-09-18T12:26:56.525Z,1.65
2022-09-18T12:29:30.254Z,1.90
2022-09-18T12:32:03.557Z,1.70
2022-09-18T12:34:35.305Z,1.70
2022-09-18T12:37:10.599Z,1.85
2022-09-18T12:39:55.179Z,2.30
2022-09-18T12:42:29.356Z,1.60
2022-09-18T12:45:15.442Z,1.98
2022-09-18T12:47:51.240Z,1.70
2022-09-18T12:50:34.492Z,2.10
2022-09-18T12:53:09.758Z,1.70
2022-09-18T12:55:43.475Z,2.00
2022-09-18T12:58:18.479Z,1.52
2022-09-18T13:00:47.860Z,1.95
2022-09-18T13:03:19.581Z,2.08
2022-09-18T13:05:50.913Z,2.00
2022-09-18T13:08:20.925Z,2.20
2022-09-18T13:10:50.189Z,2.13
2022-09-18T13:13:21.747Z,2.17
2022-09-18T13:15:52.155Z,2.40
2022-09-18T13:18:31.323Z,2.00
2022-09-18T13:21:00.366Z,2.20
2022-09-18T13:23:29.667Z,2.35
2022-09-18T13:25:58.709Z,2.22
2022-09-18T13:28:29.162Z,2.65
2022-09-18T13:31:21.758Z,2.38
2022-09-18T13:33:52.141Z,3.22
2022-09-18T13:36:24.444Z,3.55
2022-09-18T13:38:52.973Z,3.20
2022-09-18T13:41:21.768Z,2.40
2022-09-18T13:43:56.158Z,2.15
2022-09-18T13:46:32.952Z,1.88
2022-09-18T13:49:02.717Z,2.17
2022-09-18T13:51:33.129Z,2.22
2022-09-18T13:54:19.681Z,2.50
2022-09-18T13:57:10.765Z,2.25
2022-09-18T13:59:47.712Z,2.10
2022-09-18T14:02:33.037Z,2.22
2022-09-18T14:05:02.947Z,2.30
2022-09-18T14:07:58.293Z,2.28
2022-09-18T14:10:28.475Z,2.08
2022-09-18T14:13:07.423Z,2.40
2022-09-18T14:15:37.803Z,2.72
2022-09-18T14:18:08.072Z,2.15
2022-09-18T14:20:36.659Z,3.00
2022-09-18T14:23:23.868Z,2.70
2022-09-18T14:25:52.246Z,2.70
2022-09-18T14:28:21.481Z,2.53
2022-09-18T14:31:12.884Z,2.80
2022-09-18T14:33:42.323Z,2.90
2022-09-18T14:36:14.656Z,2.58
2022-09-18T14:38:43.315Z,2.58
2022-09-18T14:41:19.312Z,3.00
2022-09-18T14:43:51.447Z,3.22
2022-09-18T14:46:22.216Z,2.25
2022-09-18T14:48:50.712Z,2.30
2022-09-18T14:51:20.000Z,2.17
2022-09-18T14:53:50.693Z,1.85
2022-09-18T14:56:19.907Z,1.80
2022-09-18T14:58:51.618Z,1.58
2022-09-18T15:01:25.466Z,1.92
2022-09-18T15:03:55.447Z,2.40
2022-09-18T15:06:25.590Z,2.05
2022-09-18T15:08:55.256Z,1.80
2022-09-18T15:11:25.388Z,2.20
2022-09-18T15:13:54.875Z,1.80
2022-09-18T15:16:28.131Z,1.90
2022-09-18T15:18:57.125Z,1.70
2022-09-18T15:21:28.916Z,1.40
2022-09-18T15:24:02.267Z,1.80
2022-09-18T15:26:32.691Z,1.60
2022-09-18T15:29:02.089Z,1.80
2022-09-18T15:31:33.681Z,2.10
2022-09-18T15:34:04.606Z,1.85
2022-09-18T15:36:33.928Z,1.88
2022-09-18T15:39:02.471Z,1.75
2022-09-18T15:41:35.153Z,1.95
2022-09-18T15:44:03.879Z,1.80
2022-09-18T15:46:34.276Z,1.70
2022-09-18T15:49:04.152Z,1.88
2022-09-18T15:51:33.300Z,1.65
2022-09-18T15:54:07.541Z,1.77
2022-09-18T15:56:36.207Z,2.20
2022-09-18T15:59:06.065Z,2.05
2022-09-18T16:01:37.156Z,2.45
2022-09-18T16:04:08.966Z,2.55
2022-09-18T16:06:43.722Z,2.63
2022-09-18T16:09:23.315Z,2.67
2022-09-18T16:11:51.951Z,2.92
2022-09-18T16:14:39.204Z,3.28
2022-09-18T16:17:26.823Z,3.63
2022-09-18T16:19:56.920Z,3.67
2022-09-18T16:22:25.484Z,3.05
2022-09-18T16:24:56.460Z,2.80
2022-09-18T16:27:25.655Z,3.50
2022-09-18T16:29:54.001Z,3.35
2022-09-18T16:32:22.690Z,2.00
2022-09-18T16:34:51.083Z,1.83
2022-09-18T16:37:22.975Z,1.67
2022-09-18T16:39:51.352Z,1.65
2022-09-18T16:42:20.715Z,1.50
2022-09-18T16:44:49.235Z,1.60
2022-09-18T16:47:17.999Z,1.70
2022-09-18T16:49:49.258Z,1.73
2022-09-18T16:52:18.092Z,1.95
2022-09-18T16:54:47.965Z,2.08
2022-09-18T16:57:18.352Z,1.60
2022-09-18T16:59:48.547Z,3.15
2022-09-18T17:02:18.740Z,1.98
2022-09-18T17:04:47.121Z,2.40
2022-09-18T17:07:15.562Z,2.80
2022-09-18T17:09:43.887Z,1.90
2022-09-18T17:12:13.657Z,2.13
2022-09-18T17:14:42.194Z,1.95
2022-09-18T17:17:11.605Z,2.08
2022-09-18T17:19:41.029Z,2.17
2022-09-18T17:22:09.436Z,2.30
2022-09-18T17:24:37.994Z,2.50
2022-09-18T17:27:06.387Z,2.20
2022-09-18T17:29:36.159Z,2.40
2022-09-18T17:32:06.745Z,2.38
2022-09-18T17:34:35.473Z,1.98
2022-09-18T17:37:04.299Z,2.10
2022-09-18T17:39:32.602Z,2.10
2022-09-18T17:42:01.031Z,2.33
2022-09-18T17:44:34.443Z,2.30
2022-09-18T17:47:04.443Z,2.10
2022-09-18T17:49:33.515Z,2.10
2022-09-18T17:52:02.007Z,2.38
2022-09-18T17:54:32.110Z,2.30
2022-09-18T17:57:00.508Z,2.70
2022-09-18T17:59:31.296Z,2.92
2022-09-18T18:01:59.766Z,2.55
2022-09-18T18:04:29.531Z,2.38
2022-09-18T18:06:58.015Z,2.35
2022-09-18T18:09:26.514Z,2.05
2022-09-18T18:11:55.158Z,2.05
2022-09-18T18:14:25.166Z,1.98
2022-09-18T18:16:55.226Z,2.05
2022-09-18T18:19:23.586Z,2.22
2022-09-18T18:21:53.885Z,2.03
2022-09-18T18:24:22.615Z,2.00
2022-09-18T18:26:50.910Z,1.80
2022-09-18T18:29:21.618Z,2.08
2022-09-18T18:31:51.695Z,2.13
2022-09-18T18:34:23.306Z,2.13
2022-09-18T18:36:56.173Z,2.20
2022-09-18T18:39:24.836Z,2.40
2022-09-18T18:41:53.207Z,2.17
2022-09-18T18:44:21.572Z,1.98
2022-09-18T18:46:50.114Z,2.00
2022-09-18T18:49:18.975Z,1.70
2022-09-18T18:51:48.424Z,2.17
2022-09-18T18:54:19.324Z,2.33
2022-09-18T18:56:48.140Z,2.00
2022-09-18T18:59:17.396Z,2.20
2022-09-18T19:01:47.342Z,3.17
2022-09-18T19:04:17.272Z,3.13
2022-09-18T19:06:48.842Z,3.70
2022-09-18T19:09:20.644Z,3.10
2022-09-18T19:11:49.577Z,3.53
2022-09-18T19:14:19.293Z,3.40
2022-09-18T19:16:48.194Z,3.05
2022-09-18T19:19:17.424Z,2.85
2022-09-18T19:21:46.150Z,3.08
2022-09-18T19:24:14.946Z,3.20
2022-09-18T19:26:45.392Z,2.80
2022-09-18T19:29:14.984Z,2.90
2022-09-18T19:31:44.442Z,2.50
2022-09-18T19:34:14.123Z,2.95
2022-09-18T19:36:43.099Z,2.58
2022-09-18T19:39:13.409Z,2.20
2022-09-18T19:41:44.900Z,2.22
2022-09-18T19:44:17.558Z,2.22
2022-09-18T19:46:48.157Z,2.10
2022-09-18T19:49:18.482Z,2.13
2022-09-18T19:51:47.474Z,2.15
2022-09-18T19:54:16.219Z,2.50
2022-09-18T19:56:47.593Z,2.58
2022-09-18T19:59:17.908Z,2.00
2022-09-18T20:01:46.338Z,1.95
2022-09-18T20:04:14.990Z,2.67
2022-09-18T20:06:44.461Z,2.47
2022-09-18T20:09:12.877Z,2.58
2022-09-18T20:11:42.223Z,2.72
2022-09-18T20:14:12.909Z,2.60
2022-09-18T20:16:42.642Z,2.90
2022-09-18T20:19:11.202Z,2.50
2022-09-18T20:21:39.639Z,2.70
2022-09-18T20:24:08.395Z,3.70
2022-09-18T20:26:36.867Z,2.72
2022-09-18T20:29:05.560Z,3.28
2022-09-18T20:31:36.150Z,3.25
2022-09-18T20:34:06.621Z,3.20
2022-09-18T20:36:35.350Z,2.88
2022-09-18T20:39:03.891Z,3.30
2022-09-18T20:41:32.348Z,3.40
2022-09-18T20:44:05.082Z,3.33
2022-09-18T20:46:37.150Z,3.70
2022-09-18T20:49:08.245Z,3.30
2022-09-18T20:51:37.024Z,3.13
2022-09-18T20:54:07.037Z,2.88
2022-09-18T20:56:36.741Z,3.28
2022-09-18T20:59:05.559Z,3.25
2022-09-18T21:01:37.854Z,3.17
2022-09-18T21:04:08.542Z,2.92
2022-09-18T21:06:37.596Z,3.40
2022-09-18T21:09:06.968Z,3.03
2022-09-18T21:11:37.926Z,3.30
2022-09-18T21:14:07.188Z,3.58
2022-09-18T21:16:36.763Z,4.55
2022-09-18T21:19:05.698Z,5.53
2022-09-18T21:21:35.864Z,5.78
2022-09-18T21:24:05.340Z,6.93
2022-09-18T21:26:34.618Z,8.95
2022-09-18T21:29:03.730Z,11.80
2022-09-18T21:31:42.625Z,10.40
2022-09-18T21:34:11.493Z,8.77
2022-09-18T21:36:43.372Z,8.25
2022-09-18T21:39:12.458Z,8.57
2022-09-18T21:41:45.801Z,10.10
2022-09-18T21:44:14.912Z,8.63
2022-09-18T21:46:45.963Z,6.90
2022-09-18T21:49:16.288Z,6.22
2022-09-18T21:51:46.716Z,5.28
2022-09-18T21:54:16.340Z,4.68
2022-09-18T21:56:45.569Z,3.72
2022-09-18T21:59:13.919Z,3.60
2022-09-18T22:01:43.345Z,3.88
2022-09-18T22:04:13.399Z,4.03
2022-09-18T22:06:42.717Z,5.15
2022-09-18T22:09:13.338Z,5.70
2022-09-18T22:11:41.992Z,7.60
2022-09-18T22:14:11.090Z,7.03
2022-09-18T22:16:39.841Z,6.25
2022-09-18T22:19:09.280Z,5.88
2022-09-18T22:21:38.891Z,6.68
2022-09-18T22:24:08.975Z,7.22
2022-09-18T22:26:39.749Z,6.72
2022-09-18T22:29:08.841Z,6.90
2022-09-18T22:31:38.051Z,4.55
2022-09-18T22:34:07.328Z,5.63
2022-09-18T22:36:35.679Z,4.32
2022-09-18T22:39:04.035Z,4.20
2022-09-18T22:41:32.384Z,3.78
2022-09-18T22:44:02.117Z,2.80
2022-09-18T22:46:31.036Z,3.30
2022-09-18T22:48:59.666Z,2.92
2022-09-18T22:51:28.653Z,3.20
2022-09-18T22:53:57.734Z,3.03
2022-09-18T22:56:27.091Z,3.35
2022-09-18T22:58:56.026Z,2.95
2022-09-18T23:01:27.411Z,2.45
2022-09-18T23:03:56.917Z,2.60
2022-09-18T23:06:26.348Z,3.08
2022-09-18T23:08:55.003Z,2.80
2022-09-18T23:11:24.547Z,2.80
2022-09-18T23:13:53.894Z,3.05
2022-09-18T23:16:23.217Z,2.75
2022-09-18T23:18:54.409Z,2.92
2022-09-18T23:21:23.746Z,3.03
2022-09-18T23:23:52.122Z,3.58
2022-09-18T23:26:23.209Z,3.05
2022-09-18T23:28:52.405Z,3.58
2022-09-18T23:31:21.484Z,2.50
2022-09-18T23:33:50.543Z,2.95
2022-09-18T23:36:21.449Z,3.17
2022-09-18T23:38:50.676Z,2.40
2022-09-18T23:41:18.994Z,2.53
2022-09-18T23:43:49.515Z,2.78
2022-09-18T23:46:18.526Z,2.70
2022-09-18T23:48:47.461Z,2.55
2022-09-18T23:51:16.152Z,3.10
2022-09-18T23:53:45.855Z,2.60
2022-09-18T23:56:16.306Z,3.28
2022-09-18T23:58:45.236Z,2.60
